Ashford, Washington
Current Conditions -  °F | °C
As of 12:58 PM on Sunday 21 Dec 2014 (Local Time) from KGRF Reporting Station
Broken Clouds Broken Clouds  
Wind Chill: 12°   Ceiling: 6000
Heat Index: 12°   Visibility: 10mi
Dew Point: 11°   Wind: 6mph
Humidity: 94%   Direction: NA
Pressure: 30"   Gusts: NA
Location:  46.76°N, 122.03°W
Report Text: KGRF 212058Z VRB05KT 10SM FEW021 SCT028 SCT034 BKN060 12/11 A3000 RMK SLP163 52015
Loading
Personal Weather Stations






























Interactive Weather Map New forecast layout! Learn more

10-Day Weather Forecast

Advertisements
Track Severe Weather on mobile